sensor_id;sensor_type;location;lat;lon;timestamp;temperature;humidity
4813;DHT22;2420;51.202;8.698;2022-09-27T00:00:03;9.40;1.00
4813;DHT22;2420;51.202;8.698;2022-09-27T00:02:29;9.30;1.00
4813;DHT22;2420;51.202;8.698;2022-09-27T00:04:55;9.30;1.00
4813;DHT22;2420;51.202;8.698;2022-09-27T00:07:20;9.30;1.00
4813;DHT22;2420;51.202;8.698;2022-09-27T00:09:46;9.40;1.00
4813;DHT22;2420;51.202;8.698;2022-09-27T00:12:11;9.40;1.00
4813;DHT22;2420;51.202;8.698;2022-09-27T00:14:37;9.40;1.00
4813;DHT22;2420;51.202;8.698;2022-09-27T00:17:02;9.40;1.00
4813;DHT22;2420;51.202;8.698;2022-09-27T00:19:28;9.40;1.00
4813;DHT22;2420;51.202;8.698;2022-09-27T00:21:55;9.40;1.00
4813;DHT22;2420;51.202;8.698;2022-09-27T00:24:22;9.40;1.00
4813;DHT22;2420;51.202;8.698;2022-09-27T00:26:48;9.40;1.00
4813;DHT22;2420;51.202;8.698;2022-09-27T00:29:15;9.40;1.00
4813;DHT22;2420;51.202;8.698;2022-09-27T00:31:41;9.30;1.00
4813;DHT22;2420;51.202;8.698;2022-09-27T00:34:14;9.40;1.00
4813;DHT22;2420;51.202;8.698;2022-09-27T00:36:40;9.40;1.00
4813;DHT22;2420;51.202;8.698;2022-09-27T00:39:06;9.40;1.00
4813;DHT22;2420;51.202;8.698;2022-09-27T00:41:34;9.40;1.00
4813;DHT22;2420;51.202;8.698;2022-09-27T00:44:45;9.40;1.00
4813;DHT22;2420;51.202;8.698;2022-09-27T00:49:35;9.40;1.00
4813;DHT22;2420;51.202;8.698;2022-09-27T00:52:09;9.40;1.00
4813;DHT22;2420;51.202;8.698;2022-09-27T00:54:38;9.50;1.00
4813;DHT22;2420;51.202;8.698;2022-09-27T00:57:04;9.50;1.00
4813;DHT22;2420;51.202;8.698;2022-09-27T00:59:37;9.40;1.00
4813;DHT22;2420;51.202;8.698;2022-09-27T01:02:05;9.40;1.00
4813;DHT22;2420;51.202;8.698;2022-09-27T01:04:33;9.40;1.00
4813;DHT22;2420;51.202;8.698;2022-09-27T01:06:59;9.40;1.00
4813;DHT22;2420;51.202;8.698;2022-09-27T01:09:25;9.40;1.00
4813;DHT22;2420;51.202;8.698;2022-09-27T01:12:07;9.40;1.00
4813;DHT22;2420;51.202;8.698;2022-09-27T01:28:50;9.30;1.00
4813;DHT22;2420;51.202;8.698;2022-09-27T01:34:05;9.30;1.00
4813;DHT22;2420;51.202;8.698;2022-09-27T01:37:05;9.30;1.00
4813;DHT22;2420;51.202;8.698;2022-09-27T01:50:11;9.30;1.00
4813;DHT22;2420;51.202;8.698;2022-09-27T01:52:56;9.30;1.00
4813;DHT22;2420;51.202;8.698;2022-09-27T01:55:29;9.30;1.00
4813;DHT22;2420;51.202;8.698;2022-09-27T01:57:59;9.30;1.00
4813;DHT22;2420;51.202;8.698;2022-09-27T02:00:26;9.30;1.00
4813;DHT22;2420;51.202;8.698;2022-09-27T02:02:58;9.20;1.00
4813;DHT22;2420;51.202;8.698;2022-09-27T02:05:31;9.20;1.00
4813;DHT22;2420;51.202;8.698;2022-09-27T02:08:05;9.20;1.00
4813;DHT22;2420;51.202;8.698;2022-09-27T02:10:39;9.20;1.00
4813;DHT22;2420;51.202;8.698;2022-09-27T02:13:22;9.20;1.00
4813;DHT22;2420;51.202;8.698;2022-09-27T02:16:43;9.20;1.00
4813;DHT22;2420;51.202;8.698;2022-09-27T02:19:13;9.20;1.00
4813;DHT22;2420;51.202;8.698;2022-09-27T02:25:12;9.20;1.00
4813;DHT22;2420;51.202;8.698;2022-09-27T02:27:43;9.10;1.00
4813;DHT22;2420;51.202;8.698;2022-09-27T02:30:14;9.20;1.00
4813;DHT22;2420;51.202;8.698;2022-09-27T02:32:41;9.10;1.00
4813;DHT22;2420;51.202;8.698;2022-09-27T02:35:14;9.00;1.00
4813;DHT22;2420;51.202;8.698;2022-09-27T02:37:41;9.00;1.00
4813;DHT22;2420;51.202;8.698;2022-09-27T02:40:06;9.00;1.00
4813;DHT22;2420;51.202;8.698;2022-09-27T02:42:33;8.90;1.00
4813;DHT22;2420;51.202;8.698;2022-09-27T02:44:59;8.90;1.00
4813;DHT22;2420;51.202;8.698;2022-09-27T02:50:32;8.80;1.00
4813;DHT22;2420;51.202;8.698;2022-09-27T02:53:35;8.80;1.00
4813;DHT22;2420;51.202;8.698;2022-09-27T02:58:49;8.70;1.00
4813;DHT22;2420;51.202;8.698;2022-09-27T03:04:22;8.70;1.00
4813;DHT22;2420;51.202;8.698;2022-09-27T03:06:50;8.70;1.00
4813;DHT22;2420;51.202;8.698;2022-09-27T03:09:44;8.70;1.00
4813;DHT22;2420;51.202;8.698;2022-09-27T03:12:11;8.60;1.00
4813;DHT22;2420;51.202;8.698;2022-09-27T03:14:36;8.60;1.00
4813;DHT22;2420;51.202;8.698;2022-09-27T03:17:02;8.60;1.00
4813;DHT22;2420;51.202;8.698;2022-09-27T03:19:27;8.60;1.00
4813;DHT22;2420;51.202;8.698;2022-09-27T03:21:53;8.60;1.00
4813;DHT22;2420;51.202;8.698;2022-09-27T03:24:18;8.60;1.00
4813;DHT22;2420;51.202;8.698;2022-09-27T03:26:44;8.60;1.00
4813;DHT22;2420;51.202;8.698;2022-09-27T03:29:09;8.60;1.00
4813;DHT22;2420;51.202;8.698;2022-09-27T03:31:35;8.60;1.00
4813;DHT22;2420;51.202;8.698;2022-09-27T03:34:01;8.60;1.00
4813;DHT22;2420;51.202;8.698;2022-09-27T03:36:26;8.50;1.00
4813;DHT22;2420;51.202;8.698;2022-09-27T03:38:52;8.50;1.00
4813;DHT22;2420;51.202;8.698;2022-09-27T03:41:18;8.50;1.00
4813;DHT22;2420;51.202;8.698;2022-09-27T03:43:43;8.50;1.00
4813;DHT22;2420;51.202;8.698;2022-09-27T03:46:09;8.50;1.00
4813;DHT22;2420;51.202;8.698;2022-09-27T03:48:36;8.50;1.00
4813;DHT22;2420;51.202;8.698;2022-09-27T03:51:01;8.50;1.00
4813;DHT22;2420;51.202;8.698;2022-09-27T03:53:29;8.50;1.00
4813;DHT22;2420;51.202;8.698;2022-09-27T03:55:54;8.50;1.00
4813;DHT22;2420;51.202;8.698;2022-09-27T03:58:20;8.60;1.00
4813;DHT22;2420;51.202;8.698;2022-09-27T04:00:46;8.60;1.00
4813;DHT22;2420;51.202;8.698;2022-09-27T04:03:12;8.60;1.00
4813;DHT22;2420;51.202;8.698;2022-09-27T04:05:38;8.60;1.00
4813;DHT22;2420;51.202;8.698;2022-09-27T04:08:03;8.60;1.00
4813;DHT22;2420;51.202;8.698;2022-09-27T04:10:30;8.60;1.00
4813;DHT22;2420;51.202;8.698;2022-09-27T04:12:56;8.60;1.00
4813;DHT22;2420;51.202;8.698;2022-09-27T04:15:22;8.50;1.00
4813;DHT22;2420;51.202;8.698;2022-09-27T04:17:48;8.50;1.00
4813;DHT22;2420;51.202;8.698;2022-09-27T04:20:13;8.50;1.00
4813;DHT22;2420;51.202;8.698;2022-09-27T04:22:40;8.50;1.00
4813;DHT22;2420;51.202;8.698;2022-09-27T04:25:07;8.50;1.00
4813;DHT22;2420;51.202;8.698;2022-09-27T04:27:34;8.50;1.00
4813;DHT22;2420;51.202;8.698;2022-09-27T04:29:59;8.50;1.00
4813;DHT22;2420;51.202;8.698;2022-09-27T04:32:25;8.50;1.00
4813;DHT22;2420;51.202;8.698;2022-09-27T04:34:50;8.50;1.00
4813;DHT22;2420;51.202;8.698;2022-09-27T04:37:35;8.50;1.00
4813;DHT22;2420;51.202;8.698;2022-09-27T04:40:02;8.50;1.00
4813;DHT22;2420;51.202;8.698;2022-09-27T04:42:28;8.50;1.00
4813;DHT22;2420;51.202;8.698;2022-09-27T04:44:54;8.50;1.00
4813;DHT22;2420;51.202;8.698;2022-09-27T04:47:19;8.50;1.00
4813;DHT22;2420;51.202;8.698;2022-09-27T04:49:46;8.50;1.00
4813;DHT22;2420;51.202;8.698;2022-09-27T04:52:11;8.50;1.00
4813;DHT22;2420;51.202;8.698;2022-09-27T04:54:38;8.40;1.00
4813;DHT22;2420;51.202;8.698;2022-09-27T04:57:04;8.40;1.00
4813;DHT22;2420;51.202;8.698;2022-09-27T04:59:30;8.40;1.00
4813;DHT22;2420;51.202;8.698;2022-09-27T05:01:55;8.40;1.00
4813;DHT22;2420;51.202;8.698;2022-09-27T05:04:24;8.40;1.00
4813;DHT22;2420;51.202;8.698;2022-09-27T05:06:50;8.30;1.00
4813;DHT22;2420;51.202;8.698;2022-09-27T05:09:15;8.30;1.00
4813;DHT22;2420;51.202;8.698;2022-09-27T05:11:41;8.30;1.00
4813;DHT22;2420;51.202;8.698;2022-09-27T05:14:07;8.30;1.00
4813;DHT22;2420;51.202;8.698;2022-09-27T05:16:32;8.40;1.00
4813;DHT22;2420;51.202;8.698;2022-09-27T05:18:58;8.40;1.00
4813;DHT22;2420;51.202;8.698;2022-09-27T05:21:24;8.40;1.00
4813;DHT22;2420;51.202;8.698;2022-09-27T05:23:49;8.30;1.00
4813;DHT22;2420;51.202;8.698;2022-09-27T05:26:15;8.40;1.00
4813;DHT22;2420;51.202;8.698;2022-09-27T05:28:40;8.40;1.00
4813;DHT22;2420;51.202;8.698;2022-09-27T05:31:08;8.40;1.00
4813;DHT22;2420;51.202;8.698;2022-09-27T05:33:33;8.30;1.00
4813;DHT22;2420;51.202;8.698;2022-09-27T05:35:59;8.40;1.00
4813;DHT22;2420;51.202;8.698;2022-09-27T05:38:26;8.40;1.00
4813;DHT22;2420;51.202;8.698;2022-09-27T05:40:52;8.30;1.00
4813;DHT22;2420;51.202;8.698;2022-09-27T05:43:18;8.30;1.00
4813;DHT22;2420;51.202;8.698;2022-09-27T05:45:44;8.30;1.00
4813;DHT22;2420;51.202;8.698;2022-09-27T05:48:10;8.40;1.00
4813;DHT22;2420;51.202;8.698;2022-09-27T05:50:37;8.40;1.00
4813;DHT22;2420;51.202;8.698;2022-09-27T05:53:03;8.30;1.00
4813;DHT22;2420;51.202;8.698;2022-09-27T05:55:29;8.30;1.00
4813;DHT22;2420;51.202;8.698;2022-09-27T05:58:00;8.30;1.00
4813;DHT22;2420;51.202;8.698;2022-09-27T06:00:27;8.30;1.00
4813;DHT22;2420;51.202;8.698;2022-09-27T06:02:58;8.40;1.00
4813;DHT22;2420;51.202;8.698;2022-09-27T06:05:25;8.30;1.00
4813;DHT22;2420;51.202;8.698;2022-09-27T06:07:51;8.20;1.00
4813;DHT22;2420;51.202;8.698;2022-09-27T06:10:18;8.30;1.00
4813;DHT22;2420;51.202;8.698;2022-09-27T06:12:44;8.30;1.00
4813;DHT22;2420;51.202;8.698;2022-09-27T06:15:10;8.30;1.00
4813;DHT22;2420;51.202;8.698;2022-09-27T06:17:36;8.30;1.00
4813;DHT22;2420;51.202;8.698;2022-09-27T06:20:02;8.40;1.00
4813;DHT22;2420;51.202;8.698;2022-09-27T06:22:29;8.30;1.00
4813;DHT22;2420;51.202;8.698;2022-09-27T06:24:54;8.40;1.00
4813;DHT22;2420;51.202;8.698;2022-09-27T06:27:20;8.40;1.00
4813;DHT22;2420;51.202;8.698;2022-09-27T06:29:45;8.40;1.00
4813;DHT22;2420;51.202;8.698;2022-09-27T06:32:11;8.50;1.00
4813;DHT22;2420;51.202;8.698;2022-09-27T06:34:37;8.40;1.00
4813;DHT22;2420;51.202;8.698;2022-09-27T06:37:02;8.40;1.00
4813;DHT22;2420;51.202;8.698;2022-09-27T06:39:28;8.50;1.00
4813;DHT22;2420;51.202;8.698;2022-09-27T06:41:54;8.50;1.00
4813;DHT22;2420;51.202;8.698;2022-09-27T06:44:23;8.50;1.00
4813;DHT22;2420;51.202;8.698;2022-09-27T06:46:52;8.60;1.00
4813;DHT22;2420;51.202;8.698;2022-09-27T06:49:18;8.50;1.00
4813;DHT22;2420;51.202;8.698;2022-09-27T06:51:44;8.40;1.00
4813;DHT22;2420;51.202;8.698;2022-09-27T06:54:10;8.40;1.00
4813;DHT22;2420;51.202;8.698;2022-09-27T06:56:36;8.40;1.00
4813;DHT22;2420;51.202;8.698;2022-09-27T06:59:02;8.40;1.00
4813;DHT22;2420;51.202;8.698;2022-09-27T07:01:46;8.50;1.00
4813;DHT22;2420;51.202;8.698;2022-09-27T07:04:11;8.60;1.00
4813;DHT22;2420;51.202;8.698;2022-09-27T07:06:38;8.60;1.00
4813;DHT22;2420;51.202;8.698;2022-09-27T07:09:03;8.60;1.00
4813;DHT22;2420;51.202;8.698;2022-09-27T07:11:33;8.60;1.00
4813;DHT22;2420;51.202;8.698;2022-09-27T07:14:01;8.60;1.00
4813;DHT22;2420;51.202;8.698;2022-09-27T07:16:28;8.60;1.00
4813;DHT22;2420;51.202;8.698;2022-09-27T07:18:53;8.60;1.00
4813;DHT22;2420;51.202;8.698;2022-09-27T07:21:19;8.60;1.00
4813;DHT22;2420;51.202;8.698;2022-09-27T07:23:44;8.60;1.00
4813;DHT22;2420;51.202;8.698;2022-09-27T07:26:10;8.70;1.00
4813;DHT22;2420;51.202;8.698;2022-09-27T07:28:37;8.70;1.00
4813;DHT22;2420;51.202;8.698;2022-09-27T07:31:04;8.70;1.00
4813;DHT22;2420;51.202;8.698;2022-09-27T07:33:31;8.80;1.00
4813;DHT22;2420;51.202;8.698;2022-09-27T07:35:56;8.80;1.00
4813;DHT22;2420;51.202;8.698;2022-09-27T07:38:22;8.80;1.00
4813;DHT22;2420;51.202;8.698;2022-09-27T07:40:50;8.90;1.00
4813;DHT22;2420;51.202;8.698;2022-09-27T07:43:16;8.90;1.00
4813;DHT22;2420;51.202;8.698;2022-09-27T07:45:42;9.00;1.00
4813;DHT22;2420;51.202;8.698;2022-09-27T07:48:10;9.00;1.00
4813;DHT22;2420;51.202;8.698;2022-09-27T07:50:36;9.10;1.00
4813;DHT22;2420;51.202;8.698;2022-09-27T07:53:02;9.10;1.00
4813;DHT22;2420;51.202;8.698;2022-09-27T07:55:29;9.20;1.00
4813;DHT22;2420;51.202;8.698;2022-09-27T07:58:09;9.20;1.00
4813;DHT22;2420;51.202;8.698;2022-09-27T08:00:35;9.40;1.00
4813;DHT22;2420;51.202;8.698;2022-09-27T08:03:12;9.50;1.00
4813;DHT22;2420;51.202;8.698;2022-09-27T08:05:44;9.60;1.00
4813;DHT22;2420;51.202;8.698;2022-09-27T08:08:11;9.70;1.00
4813;DHT22;2420;51.202;8.698;2022-09-27T08:10:37;9.70;1.00
4813;DHT22;2420;51.202;8.698;2022-09-27T08:13:08;9.70;1.00
4813;DHT22;2420;51.202;8.698;2022-09-27T08:15:34;9.80;1.00
4813;DHT22;2420;51.202;8.698;2022-09-27T08:18:04;9.80;1.00
4813;DHT22;2420;51.202;8.698;2022-09-27T08:20:29;9.90;1.00
4813;DHT22;2420;51.202;8.698;2022-09-27T08:22:55;9.90;1.00
4813;DHT22;2420;51.202;8.698;2022-09-27T08:25:21;10.00;1.00
4813;DHT22;2420;51.202;8.698;2022-09-27T08:27:59;10.00;1.00
4813;DHT22;2420;51.202;8.698;2022-09-27T08:30:26;10.00;1.00
4813;DHT22;2420;51.202;8.698;2022-09-27T08:32:59;10.00;1.00
4813;DHT22;2420;51.202;8.698;2022-09-27T08:35:25;10.00;1.00
4813;DHT22;2420;51.202;8.698;2022-09-27T08:37:56;9.90;1.00
4813;DHT22;2420;51.202;8.698;2022-09-27T08:40:34;10.00;1.00
4813;DHT22;2420;51.202;8.698;2022-09-27T08:48:26;9.90;1.00
4813;DHT22;2420;51.202;8.698;2022-09-27T08:50:54;9.90;1.00
4813;DHT22;2420;51.202;8.698;2022-09-27T08:53:24;9.80;1.00
4813;DHT22;2420;51.202;8.698;2022-09-27T08:55:53;9.80;1.00
4813;DHT22;2420;51.202;8.698;2022-09-27T08:58:25;9.80;1.00
4813;DHT22;2420;51.202;8.698;2022-09-27T09:01:02;9.80;1.00
4813;DHT22;2420;51.202;8.698;2022-09-27T09:03:45;9.90;1.00
4813;DHT22;2420;51.202;8.698;2022-09-27T09:17:56;9.80;1.00
4813;DHT22;2420;51.202;8.698;2022-09-27T09:21:06;9.70;1.00
4813;DHT22;2420;51.202;8.698;2022-09-27T09:26:56;9.80;1.00
4813;DHT22;2420;51.202;8.698;2022-09-27T09:34:52;9.30;1.00
4813;DHT22;2420;51.202;8.698;2022-09-27T09:37:48;9.30;1.00
4813;DHT22;2420;51.202;8.698;2022-09-27T09:40:22;9.40;1.00
4813;DHT22;2420;51.202;8.698;2022-09-27T09:43:14;9.70;1.00
4813;DHT22;2420;51.202;8.698;2022-09-27T09:45:44;9.80;1.00
4813;DHT22;2420;51.202;8.698;2022-09-27T09:50:43;9.60;1.00
4813;DHT22;2420;51.202;8.698;2022-09-27T09:53:48;9.60;1.00
4813;DHT22;2420;51.202;8.698;2022-09-27T09:56:35;9.60;1.00
4813;DHT22;2420;51.202;8.698;2022-09-27T09:59:10;9.60;1.00
4813;DHT22;2420;51.202;8.698;2022-09-27T10:01:43;9.70;1.00
4813;DHT22;2420;51.202;8.698;2022-09-27T10:04:17;9.80;1.00
4813;DHT22;2420;51.202;8.698;2022-09-27T10:06:44;9.80;1.00
4813;DHT22;2420;51.202;8.698;2022-09-27T10:09:14;10.00;1.00
4813;DHT22;2420;51.202;8.698;2022-09-27T10:11:44;10.00;1.00
4813;DHT22;2420;51.202;8.698;2022-09-27T10:14:13;9.90;1.00
4813;DHT22;2420;51.202;8.698;2022-09-27T10:16:40;9.90;1.00
4813;DHT22;2420;51.202;8.698;2022-09-27T10:19:08;10.00;1.00
4813;DHT22;2420;51.202;8.698;2022-09-27T10:21:37;10.00;1.00
4813;DHT22;2420;51.202;8.698;2022-09-27T10:24:14;10.10;1.00
4813;DHT22;2420;51.202;8.698;2022-09-27T10:26:42;10.10;1.00
4813;DHT22;2420;51.202;8.698;2022-09-27T10:29:30;10.20;1.00
4813;DHT22;2420;51.202;8.698;2022-09-27T10:31:58;10.20;1.00
4813;DHT22;2420;51.202;8.698;2022-09-27T10:34:25;10.10;1.00
4813;DHT22;2420;51.202;8.698;2022-09-27T10:39:36;10.00;1.00
4813;DHT22;2420;51.202;8.698;2022-09-27T10:42:36;9.90;1.00
4813;DHT22;2420;51.202;8.698;2022-09-27T10:47:51;10.00;1.00
4813;DHT22;2420;51.202;8.698;2022-09-27T10:50:29;10.00;1.00
4813;DHT22;2420;51.202;8.698;2022-09-27T10:55:36;9.90;1.00
4813;DHT22;2420;51.202;8.698;2022-09-27T10:58:02;10.00;1.00
4813;DHT22;2420;51.202;8.698;2022-09-27T11:00:33;10.00;1.00
4813;DHT22;2420;51.202;8.698;2022-09-27T11:03:11;10.00;1.00
4813;DHT22;2420;51.202;8.698;2022-09-27T11:05:38;10.10;1.00
4813;DHT22;2420;51.202;8.698;2022-09-27T11:10:42;10.10;1.00
4813;DHT22;2420;51.202;8.698;2022-09-27T11:13:18;10.10;1.00
4813;DHT22;2420;51.202;8.698;2022-09-27T11:21:26;9.90;1.00
4813;DHT22;2420;51.202;8.698;2022-09-27T11:24:24;9.80;1.00
4813;DHT22;2420;51.202;8.698;2022-09-27T11:27:25;9.90;1.00
4813;DHT22;2420;51.202;8.698;2022-09-27T11:30:10;10.00;1.00
4813;DHT22;2420;51.202;8.698;2022-09-27T11:35:36;10.00;1.00
4813;DHT22;2420;51.202;8.698;2022-09-27T11:38:30;10.00;1.00
4813;DHT22;2420;51.202;8.698;2022-09-27T11:44:06;9.80;1.00
4813;DHT22;2420;51.202;8.698;2022-09-27T11:46:37;9.70;1.00
4813;DHT22;2420;51.202;8.698;2022-09-27T11:57:39;9.90;1.00
4813;DHT22;2420;51.202;8.698;2022-09-27T12:00:20;10.00;1.00
4813;DHT22;2420;51.202;8.698;2022-09-27T12:03:14;10.10;1.00
4813;DHT22;2420;51.202;8.698;2022-09-27T12:13:47;10.00;1.00
4813;DHT22;2420;51.202;8.698;2022-09-27T12:16:16;9.90;1.00
4813;DHT22;2420;51.202;8.698;2022-09-27T12:18:42;9.90;1.00
4813;DHT22;2420;51.202;8.698;2022-09-27T12:21:10;9.90;1.00
4813;DHT22;2420;51.202;8.698;2022-09-27T12:23:48;10.00;1.00
4813;DHT22;2420;51.202;8.698;2022-09-27T12:26:36;10.10;1.00
4813;DHT22;2420;51.202;8.698;2022-09-27T12:29:14;10.20;1.00
4813;DHT22;2420;51.202;8.698;2022-09-27T12:32:01;10.40;1.00
4813;DHT22;2420;51.202;8.698;2022-09-27T12:40:17;10.30;1.00
4813;DHT22;2420;51.202;8.698;2022-09-27T12:42:50;10.20;1.00
4813;DHT22;2420;51.202;8.698;2022-09-27T12:51:17;9.90;1.00
4813;DHT22;2420;51.202;8.698;2022-09-27T12:57:13;9.90;1.00
4813;DHT22;2420;51.202;8.698;2022-09-27T13:05:34;9.90;1.00
4813;DHT22;2420;51.202;8.698;2022-09-27T13:13:57;10.00;1.00
4813;DHT22;2420;51.202;8.698;2022-09-27T13:16:24;10.00;1.00
4813;DHT22;2420;51.202;8.698;2022-09-27T13:24:42;10.00;1.00
4813;DHT22;2420;51.202;8.698;2022-09-27T13:32:33;10.40;1.00
4813;DHT22;2420;51.202;8.698;2022-09-27T13:35:21;10.30;1.00
4813;DHT22;2420;51.202;8.698;2022-09-27T13:37:55;10.30;1.00
4813;DHT22;2420;51.202;8.698;2022-09-27T13:40:34;10.40;1.00
4813;DHT22;2420;51.202;8.698;2022-09-27T13:46:30;10.50;1.00
4813;DHT22;2420;51.202;8.698;2022-09-27T13:51:50;10.50;1.00
4813;DHT22;2420;51.202;8.698;2022-09-27T13:54:39;10.50;1.00
4813;DHT22;2420;51.202;8.698;2022-09-27T13:57:37;10.60;1.00
4813;DHT22;2420;51.202;8.698;2022-09-27T14:00:08;10.40;1.00
4813;DHT22;2420;51.202;8.698;2022-09-27T14:02:39;10.30;1.00
4813;DHT22;2420;51.202;8.698;2022-09-27T14:05:10;10.20;1.00
4813;DHT22;2420;51.202;8.698;2022-09-27T14:07:41;10.10;1.00
4813;DHT22;2420;51.202;8.698;2022-09-27T14:10:13;10.10;1.00
4813;DHT22;2420;51.202;8.698;2022-09-27T14:12:41;10.10;1.00
4813;DHT22;2420;51.202;8.698;2022-09-27T14:15:23;10.30;1.00
4813;DHT22;2420;51.202;8.698;2022-09-27T14:17:50;10.40;1.00
4813;DHT22;2420;51.202;8.698;2022-09-27T14:20:29;10.50;1.00
4813;DHT22;2420;51.202;8.698;2022-09-27T14:22:58;10.50;1.00
4813;DHT22;2420;51.202;8.698;2022-09-27T14:25:24;10.60;1.00
4813;DHT22;2420;51.202;8.698;2022-09-27T14:27:50;10.60;1.00
4813;DHT22;2420;51.202;8.698;2022-09-27T14:30:22;10.60;1.00
4813;DHT22;2420;51.202;8.698;2022-09-27T14:32:53;10.70;1.00
4813;DHT22;2420;51.202;8.698;2022-09-27T14:35:29;10.70;1.00
4813;DHT22;2420;51.202;8.698;2022-09-27T14:38:16;10.70;1.00
4813;DHT22;2420;51.202;8.698;2022-09-27T14:40:59;10.70;1.00
4813;DHT22;2420;51.202;8.698;2022-09-27T14:43:25;10.70;1.00
4813;DHT22;2420;51.202;8.698;2022-09-27T14:45:56;10.70;1.00
4813;DHT22;2420;51.202;8.698;2022-09-27T14:48:31;10.60;1.00
4813;DHT22;2420;51.202;8.698;2022-09-27T14:51:02;10.50;1.00
4813;DHT22;2420;51.202;8.698;2022-09-27T14:53:50;10.40;1.00
4813;DHT22;2420;51.202;8.698;2022-09-27T14:56:24;10.40;1.00
4813;DHT22;2420;51.202;8.698;2022-09-27T14:58:54;10.40;1.00
4813;DHT22;2420;51.202;8.698;2022-09-27T15:01:27;10.30;1.00
4813;DHT22;2420;51.202;8.698;2022-09-27T15:03:53;10.30;1.00
4813;DHT22;2420;51.202;8.698;2022-09-27T15:06:19;10.30;1.00
4813;DHT22;2420;51.202;8.698;2022-09-27T15:08:45;10.30;1.00
4813;DHT22;2420;51.202;8.698;2022-09-27T15:11:15;10.40;1.00
4813;DHT22;2420;51.202;8.698;2022-09-27T15:13:42;10.50;1.00
4813;DHT22;2420;51.202;8.698;2022-09-27T15:16:14;10.50;1.00
4813;DHT22;2420;51.202;8.698;2022-09-27T15:18:43;10.60;1.00
4813;DHT22;2420;51.202;8.698;2022-09-27T15:21:28;10.70;1.00
4813;DHT22;2420;51.202;8.698;2022-09-27T15:23:55;10.70;1.00
4813;DHT22;2420;51.202;8.698;2022-09-27T15:26:32;10.70;1.00
4813;DHT22;2420;51.202;8.698;2022-09-27T15:29:00;10.60;1.00
4813;DHT22;2420;51.202;8.698;2022-09-27T15:31:35;10.60;1.00
4813;DHT22;2420;51.202;8.698;2022-09-27T15:34:02;10.40;1.00
4813;DHT22;2420;51.202;8.698;2022-09-27T15:36:53;10.40;1.00
4813;DHT22;2420;51.202;8.698;2022-09-27T15:39:27;10.20;1.00
4813;DHT22;2420;51.202;8.698;2022-09-27T15:42:03;9.90;1.00
4813;DHT22;2420;51.202;8.698;2022-09-27T15:44:42;9.80;1.00
4813;DHT22;2420;51.202;8.698;2022-09-27T15:49:57;9.60;1.00
4813;DHT22;2420;51.202;8.698;2022-09-27T15:52:40;9.60;1.00
4813;DHT22;2420;51.202;8.698;2022-09-27T15:55:10;9.50;1.00
4813;DHT22;2420;51.202;8.698;2022-09-27T15:57:43;9.50;1.00
4813;DHT22;2420;51.202;8.698;2022-09-27T16:00:13;9.40;1.00
4813;DHT22;2420;51.202;8.698;2022-09-27T16:02:39;9.40;1.00
4813;DHT22;2420;51.202;8.698;2022-09-27T16:05:05;9.40;1.00
4813;DHT22;2420;51.202;8.698;2022-09-27T16:07:30;9.40;1.00
4813;DHT22;2420;51.202;8.698;2022-09-27T16:09:56;9.30;1.00
4813;DHT22;2420;51.202;8.698;2022-09-27T16:12:21;9.30;1.00
4813;DHT22;2420;51.202;8.698;2022-09-27T16:14:47;9.40;1.00
4813;DHT22;2420;51.202;8.698;2022-09-27T16:17:12;9.30;1.00
4813;DHT22;2420;51.202;8.698;2022-09-27T16:19:38;9.30;1.00
4813;DHT22;2420;51.202;8.698;2022-09-27T16:22:04;9.30;1.00
4813;DHT22;2420;51.202;8.698;2022-09-27T16:24:30;9.30;1.00
4813;DHT22;2420;51.202;8.698;2022-09-27T16:26:57;9.20;1.00
4813;DHT22;2420;51.202;8.698;2022-09-27T16:29:22;9.10;1.00
4813;DHT22;2420;51.202;8.698;2022-09-27T16:31:48;9.10;1.00
4813;DHT22;2420;51.202;8.698;2022-09-27T16:34:15;9.10;1.00
4813;DHT22;2420;51.202;8.698;2022-09-27T16:36:41;9.00;1.00
4813;DHT22;2420;51.202;8.698;2022-09-27T16:39:10;8.90;1.00
4813;DHT22;2420;51.202;8.698;2022-09-27T16:41:37;8.90;1.00
4813;DHT22;2420;51.202;8.698;2022-09-27T16:44:13;8.90;1.00
4813;DHT22;2420;51.202;8.698;2022-09-27T16:46:42;8.90;1.00
4813;DHT22;2420;51.202;8.698;2022-09-27T16:49:10;8.90;1.00
4813;DHT22;2420;51.202;8.698;2022-09-27T16:51:55;8.90;1.00
4813;DHT22;2420;51.202;8.698;2022-09-27T16:54:29;8.90;1.00
4813;DHT22;2420;51.202;8.698;2022-09-27T16:56:56;8.90;1.00
4813;DHT22;2420;51.202;8.698;2022-09-27T16:59:22;8.90;1.00
4813;DHT22;2420;51.202;8.698;2022-09-27T17:01:49;8.80;1.00
4813;DHT22;2420;51.202;8.698;2022-09-27T17:04:15;8.80;1.00
4813;DHT22;2420;51.202;8.698;2022-09-27T17:06:40;8.80;1.00
4813;DHT22;2420;51.202;8.698;2022-09-27T17:09:06;8.70;1.00
4813;DHT22;2420;51.202;8.698;2022-09-27T17:11:32;8.70;1.00
4813;DHT22;2420;51.202;8.698;2022-09-27T17:13:57;8.70;1.00
4813;DHT22;2420;51.202;8.698;2022-09-27T17:16:23;8.70;1.00
4813;DHT22;2420;51.202;8.698;2022-09-27T17:18:49;8.70;1.00
4813;DHT22;2420;51.202;8.698;2022-09-27T17:21:15;8.70;1.00
4813;DHT22;2420;51.202;8.698;2022-09-27T17:23:41;8.60;1.00
4813;DHT22;2420;51.202;8.698;2022-09-27T17:28:38;8.60;1.00
4813;DHT22;2420;51.202;8.698;2022-09-27T17:31:06;8.50;1.00
4813;DHT22;2420;51.202;8.698;2022-09-27T17:33:34;8.60;1.00
4813;DHT22;2420;51.202;8.698;2022-09-27T17:36:06;8.60;1.00
4813;DHT22;2420;51.202;8.698;2022-09-27T17:38:32;8.50;1.00
4813;DHT22;2420;51.202;8.698;2022-09-27T17:40:59;8.50;1.00
4813;DHT22;2420;51.202;8.698;2022-09-27T17:43:26;8.50;1.00
4813;DHT22;2420;51.202;8.698;2022-09-27T17:45:51;8.50;1.00
4813;DHT22;2420;51.202;8.698;2022-09-27T17:48:17;8.40;1.00
4813;DHT22;2420;51.202;8.698;2022-09-27T17:51:01;8.40;1.00
4813;DHT22;2420;51.202;8.698;2022-09-27T17:53:26;8.40;1.00
4813;DHT22;2420;51.202;8.698;2022-09-27T17:55:52;8.40;1.00
4813;DHT22;2420;51.202;8.698;2022-09-27T17:58:18;8.30;1.00
4813;DHT22;2420;51.202;8.698;2022-09-27T18:00:45;8.20;1.00
4813;DHT22;2420;51.202;8.698;2022-09-27T18:03:11;8.20;1.00
4813;DHT22;2420;51.202;8.698;2022-09-27T18:05:36;8.20;1.00
4813;DHT22;2420;51.202;8.698;2022-09-27T18:08:02;8.20;1.00
4813;DHT22;2420;51.202;8.698;2022-09-27T18:10:28;8.20;1.00
4813;DHT22;2420;51.202;8.698;2022-09-27T18:12:54;8.20;1.00
4813;DHT22;2420;51.202;8.698;2022-09-27T18:15:20;8.20;1.00
4813;DHT22;2420;51.202;8.698;2022-09-27T18:17:49;8.20;1.00
4813;DHT22;2420;51.202;8.698;2022-09-27T18:20:14;8.20;1.00
4813;DHT22;2420;51.202;8.698;2022-09-27T18:22:40;8.20;1.00
4813;DHT22;2420;51.202;8.698;2022-09-27T18:25:06;8.20;1.00
4813;DHT22;2420;51.202;8.698;2022-09-27T18:27:31;8.10;1.00
4813;DHT22;2420;51.202;8.698;2022-09-27T18:29:58;8.10;1.00
4813;DHT22;2420;51.202;8.698;2022-09-27T18:32:25;8.10;1.00
4813;DHT22;2420;51.202;8.698;2022-09-27T18:34:51;8.10;1.00
4813;DHT22;2420;51.202;8.698;2022-09-27T18:37:16;8.10;1.00
4813;DHT22;2420;51.202;8.698;2022-09-27T18:39:42;8.10;1.00
4813;DHT22;2420;51.202;8.698;2022-09-27T18:42:07;8.10;1.00
4813;DHT22;2420;51.202;8.698;2022-09-27T18:44:33;8.10;1.00
4813;DHT22;2420;51.202;8.698;2022-09-27T18:46:58;8.10;1.00
4813;DHT22;2420;51.202;8.698;2022-09-27T18:49:24;8.10;1.00
4813;DHT22;2420;51.202;8.698;2022-09-27T18:51:52;8.10;1.00
4813;DHT22;2420;51.202;8.698;2022-09-27T18:54:20;8.10;1.00
4813;DHT22;2420;51.202;8.698;2022-09-27T18:56:47;8.10;1.00
4813;DHT22;2420;51.202;8.698;2022-09-27T18:59:13;8.10;1.00
4813;DHT22;2420;51.202;8.698;2022-09-27T19:01:41;8.10;1.00
4813;DHT22;2420;51.202;8.698;2022-09-27T19:04:10;8.10;1.00
4813;DHT22;2420;51.202;8.698;2022-09-27T19:06:37;8.10;1.00
4813;DHT22;2420;51.202;8.698;2022-09-27T19:09:04;8.10;1.00
4813;DHT22;2420;51.202;8.698;2022-09-27T19:11:30;8.00;1.00
4813;DHT22;2420;51.202;8.698;2022-09-27T19:13:57;8.10;1.00
4813;DHT22;2420;51.202;8.698;2022-09-27T19:16:24;8.10;1.00
4813;DHT22;2420;51.202;8.698;2022-09-27T19:18:50;8.10;1.00
4813;DHT22;2420;51.202;8.698;2022-09-27T19:21:21;8.10;1.00
4813;DHT22;2420;51.202;8.698;2022-09-27T19:23:47;8.10;1.00
4813;DHT22;2420;51.202;8.698;2022-09-27T19:26:16;8.10;1.00
4813;DHT22;2420;51.202;8.698;2022-09-27T19:28:43;8.10;1.00